sensor_id;sensor_type;location;lat;lon;timestamp;P1;durP1;ratioP1;P2;durP2;ratioP2
4375;SDS011;2202;50.866;12.750;2023-12-20T00:01:06;11.27;;;8.47;;
4375;SDS011;2202;50.866;12.750;2023-12-20T00:03:33;9.27;;;6.50;;
4375;SDS011;2202;50.866;12.750;2023-12-20T00:06:00;9.43;;;6.70;;
4375;SDS011;2202;50.866;12.750;2023-12-20T00:08:28;6.80;;;6.03;;
4375;SDS011;2202;50.866;12.750;2023-12-20T00:10:56;9.20;;;7.43;;
4375;SDS011;2202;50.866;12.750;2023-12-20T00:13:23;8.97;;;6.30;;
4375;SDS011;2202;50.866;12.750;2023-12-20T00:15:49;8.77;;;6.07;;
4375;SDS011;2202;50.866;12.750;2023-12-20T00:18:16;6.23;;;5.63;;
4375;SDS011;2202;50.866;12.750;2023-12-20T00:20:44;5.73;;;5.20;;
4375;SDS011;2202;50.866;12.750;2023-12-20T00:23:10;5.97;;;5.37;;
4375;SDS011;2202;50.866;12.750;2023-12-20T00:25:39;5.63;;;4.50;;
4375;SDS011;2202;50.866;12.750;2023-12-20T00:28:06;6.60;;;5.20;;
4375;SDS011;2202;50.866;12.750;2023-12-20T00:30:33;6.23;;;5.60;;
4375;SDS011;2202;50.866;12.750;2023-12-20T00:32:59;7.90;;;6.13;;
4375;SDS011;2202;50.866;12.750;2023-12-20T00:35:27;5.90;;;5.20;;
4375;SDS011;2202;50.866;12.750;2023-12-20T00:37:54;5.13;;;4.57;;
4375;SDS011;2202;50.866;12.750;2023-12-20T00:40:21;5.47;;;4.93;;
4375;SDS011;2202;50.866;12.750;2023-12-20T00:42:49;5.60;;;4.97;;
4375;SDS011;2202;50.866;12.750;2023-12-20T00:45:16;4.57;;;4.10;;
4375;SDS011;2202;50.866;12.750;2023-12-20T00:47:43;3.33;;;3.03;;
4375;SDS011;2202;50.866;12.750;2023-12-20T00:50:10;4.00;;;3.70;;
4375;SDS011;2202;50.866;12.750;2023-12-20T00:52:37;4.47;;;4.07;;
4375;SDS011;2202;50.866;12.750;2023-12-20T00:55:04;5.00;;;4.60;;
4375;SDS011;2202;50.866;12.750;2023-12-20T00:57:32;4.93;;;4.40;;
4375;SDS011;2202;50.866;12.750;2023-12-20T01:00:01;3.57;;;3.27;;
4375;SDS011;2202;50.866;12.750;2023-12-20T01:02:28;3.80;;;3.33;;
4375;SDS011;2202;50.866;12.750;2023-12-20T01:04:55;2.50;;;2.30;;
4375;SDS011;2202;50.866;12.750;2023-12-20T01:07:22;3.90;;;3.60;;
4375;SDS011;2202;50.866;12.750;2023-12-20T01:09:49;3.33;;;3.00;;
4375;SDS011;2202;50.866;12.750;2023-12-20T01:12:16;3.63;;;3.03;;
4375;SDS011;2202;50.866;12.750;2023-12-20T01:14:45;2.63;;;2.40;;
4375;SDS011;2202;50.866;12.750;2023-12-20T01:17:13;4.77;;;3.37;;
4375;SDS011;2202;50.866;12.750;2023-12-20T01:19:40;2.93;;;2.73;;
4375;SDS011;2202;50.866;12.750;2023-12-20T01:22:07;3.03;;;2.73;;
4375;SDS011;2202;50.866;12.750;2023-12-20T01:24:34;3.50;;;3.20;;
4375;SDS011;2202;50.866;12.750;2023-12-20T01:27:01;3.77;;;2.80;;
4375;SDS011;2202;50.866;12.750;2023-12-20T01:29:28;2.87;;;2.67;;
4375;SDS011;2202;50.866;12.750;2023-12-20T01:31:55;2.60;;;2.40;;
4375;SDS011;2202;50.866;12.750;2023-12-20T01:34:23;2.40;;;2.20;;
4375;SDS011;2202;50.866;12.750;2023-12-20T01:36:50;2.87;;;2.60;;
4375;SDS011;2202;50.866;12.750;2023-12-20T01:39:17;2.37;;;2.17;;
4375;SDS011;2202;50.866;12.750;2023-12-20T01:41:44;2.40;;;2.20;;
4375;SDS011;2202;50.866;12.750;2023-12-20T01:44:11;2.33;;;2.13;;
4375;SDS011;2202;50.866;12.750;2023-12-20T01:46:38;2.40;;;2.20;;
4375;SDS011;2202;50.866;12.750;2023-12-20T01:49:05;3.00;;;2.70;;
4375;SDS011;2202;50.866;12.750;2023-12-20T01:51:33;2.43;;;2.23;;
4375;SDS011;2202;50.866;12.750;2023-12-20T01:54:00;2.10;;;1.90;;
4375;SDS011;2202;50.866;12.750;2023-12-20T01:56:28;2.30;;;2.10;;
4375;SDS011;2202;50.866;12.750;2023-12-20T01:58:56;2.73;;;2.53;;
4375;SDS011;2202;50.866;12.750;2023-12-20T02:01:24;2.27;;;2.07;;
4375;SDS011;2202;50.866;12.750;2023-12-20T02:03:53;3.17;;;2.87;;
4375;SDS011;2202;50.866;12.750;2023-12-20T02:06:21;1.97;;;1.87;;
4375;SDS011;2202;50.866;12.750;2023-12-20T02:08:50;2.40;;;2.00;;
4375;SDS011;2202;50.866;12.750;2023-12-20T02:11:17;2.00;;;1.87;;
4375;SDS011;2202;50.866;12.750;2023-12-20T02:13:44;1.70;;;1.60;;
4375;SDS011;2202;50.866;12.750;2023-12-20T02:16:11;1.73;;;1.57;;
4375;SDS011;2202;50.866;12.750;2023-12-20T02:18:39;2.70;;;2.50;;
4375;SDS011;2202;50.866;12.750;2023-12-20T02:21:05;2.30;;;2.10;;
4375;SDS011;2202;50.866;12.750;2023-12-20T02:23:34;2.30;;;2.20;;
4375;SDS011;2202;50.866;12.750;2023-12-20T02:26:01;2.37;;;2.17;;
4375;SDS011;2202;50.866;12.750;2023-12-20T02:28:28;2.50;;;2.30;;
4375;SDS011;2202;50.866;12.750;2023-12-20T02:30:55;2.07;;;1.97;;
4375;SDS011;2202;50.866;12.750;2023-12-20T02:33:22;3.10;;;2.13;;
4375;SDS011;2202;50.866;12.750;2023-12-20T02:35:49;1.50;;;1.40;;
4375;SDS011;2202;50.866;12.750;2023-12-20T02:38:17;1.83;;;1.73;;
4375;SDS011;2202;50.866;12.750;2023-12-20T02:40:46;1.53;;;1.43;;
4375;SDS011;2202;50.866;12.750;2023-12-20T02:43:12;1.80;;;1.70;;
4375;SDS011;2202;50.866;12.750;2023-12-20T02:45:39;1.73;;;1.63;;
4375;SDS011;2202;50.866;12.750;2023-12-20T02:48:07;1.50;;;1.40;;
4375;SDS011;2202;50.866;12.750;2023-12-20T02:50:33;1.40;;;1.30;;
4375;SDS011;2202;50.866;12.750;2023-12-20T02:53:00;1.70;;;1.60;;
4375;SDS011;2202;50.866;12.750;2023-12-20T02:55:27;1.40;;;1.30;;
4375;SDS011;2202;50.866;12.750;2023-12-20T02:57:55;1.90;;;1.63;;
4375;SDS011;2202;50.866;12.750;2023-12-20T03:00:22;2.63;;;1.37;;
4375;SDS011;2202;50.866;12.750;2023-12-20T03:02:49;1.87;;;1.70;;
4375;SDS011;2202;50.866;12.750;2023-12-20T03:05:16;1.77;;;1.67;;
4375;SDS011;2202;50.866;12.750;2023-12-20T03:07:43;1.93;;;1.83;;
4375;SDS011;2202;50.866;12.750;2023-12-20T03:10:10;1.83;;;1.70;;
4375;SDS011;2202;50.866;12.750;2023-12-20T03:12:38;1.60;;;1.40;;
4375;SDS011;2202;50.866;12.750;2023-12-20T03:15:07;1.70;;;1.60;;
4375;SDS011;2202;50.866;12.750;2023-12-20T03:17:35;1.80;;;1.70;;
4375;SDS011;2202;50.866;12.750;2023-12-20T03:20:02;1.60;;;1.40;;
4375;SDS011;2202;50.866;12.750;2023-12-20T03:22:29;2.63;;;1.77;;
4375;SDS011;2202;50.866;12.750;2023-12-20T03:24:56;1.77;;;1.67;;
4375;SDS011;2202;50.866;12.750;2023-12-20T03:27:23;1.50;;;1.40;;
4375;SDS011;2202;50.866;12.750;2023-12-20T03:29:50;1.50;;;1.40;;
4375;SDS011;2202;50.866;12.750;2023-12-20T03:32:18;2.00;;;1.90;;
4375;SDS011;2202;50.866;12.750;2023-12-20T03:34:45;1.50;;;1.37;;
4375;SDS011;2202;50.866;12.750;2023-12-20T03:37:11;1.40;;;1.20;;
4375;SDS011;2202;50.866;12.750;2023-12-20T03:39:38;1.33;;;1.23;;
4375;SDS011;2202;50.866;12.750;2023-12-20T03:42:05;1.37;;;1.27;;
4375;SDS011;2202;50.866;12.750;2023-12-20T03:44:32;1.20;;;1.07;;
4375;SDS011;2202;50.866;12.750;2023-12-20T03:46:59;1.57;;;1.37;;
4375;SDS011;2202;50.866;12.750;2023-12-20T03:49:27;1.50;;;1.27;;
4375;SDS011;2202;50.866;12.750;2023-12-20T03:51:54;1.60;;;1.30;;
4375;SDS011;2202;50.866;12.750;2023-12-20T03:54:21;1.20;;;1.00;;
4375;SDS011;2202;50.866;12.750;2023-12-20T03:56:48;1.23;;;1.07;;
4375;SDS011;2202;50.866;12.750;2023-12-20T03:59:15;1.47;;;1.37;;
4375;SDS011;2202;50.866;12.750;2023-12-20T04:01:42;1.60;;;1.37;;
4375;SDS011;2202;50.866;12.750;2023-12-20T04:04:09;1.40;;;1.23;;
4375;SDS011;2202;50.866;12.750;2023-12-20T04:06:38;1.60;;;1.50;;
4375;SDS011;2202;50.866;12.750;2023-12-20T04:09:05;1.60;;;1.50;;
4375;SDS011;2202;50.866;12.750;2023-12-20T04:11:34;1.30;;;1.20;;
4375;SDS011;2202;50.866;12.750;2023-12-20T04:14:01;1.40;;;1.30;;
4375;SDS011;2202;50.866;12.750;2023-12-20T04:16:27;1.33;;;1.23;;
4375;SDS011;2202;50.866;12.750;2023-12-20T04:18:54;1.50;;;1.40;;
4375;SDS011;2202;50.866;12.750;2023-12-20T04:21:21;2.17;;;1.20;;
4375;SDS011;2202;50.866;12.750;2023-12-20T04:23:49;1.30;;;1.20;;
4375;SDS011;2202;50.866;12.750;2023-12-20T04:26:16;1.47;;;1.37;;
4375;SDS011;2202;50.866;12.750;2023-12-20T04:28:43;1.50;;;1.37;;
4375;SDS011;2202;50.866;12.750;2023-12-20T04:31:10;1.50;;;1.40;;
4375;SDS011;2202;50.866;12.750;2023-12-20T04:33:37;1.50;;;1.40;;
4375;SDS011;2202;50.866;12.750;2023-12-20T04:36:04;1.30;;;1.10;;
4375;SDS011;2202;50.866;12.750;2023-12-20T04:38:31;1.60;;;1.50;;
4375;SDS011;2202;50.866;12.750;2023-12-20T04:40:59;1.30;;;1.20;;
4375;SDS011;2202;50.866;12.750;2023-12-20T04:43:27;1.50;;;1.20;;
4375;SDS011;2202;50.866;12.750;2023-12-20T04:45:54;1.30;;;1.20;;
4375;SDS011;2202;50.866;12.750;2023-12-20T04:48:21;1.40;;;1.20;;
4375;SDS011;2202;50.866;12.750;2023-12-20T04:50:48;1.20;;;1.00;;
4375;SDS011;2202;50.866;12.750;2023-12-20T04:53:15;1.37;;;1.10;;
4375;SDS011;2202;50.866;12.750;2023-12-20T04:55:42;4.17;;;1.20;;
4375;SDS011;2202;50.866;12.750;2023-12-20T04:58:10;1.80;;;1.37;;
4375;SDS011;2202;50.866;12.750;2023-12-20T05:00:37;1.90;;;1.50;;
4375;SDS011;2202;50.866;12.750;2023-12-20T05:03:04;1.50;;;1.20;;
4375;SDS011;2202;50.866;12.750;2023-12-20T05:05:31;1.30;;;1.20;;
4375;SDS011;2202;50.866;12.750;2023-12-20T05:07:58;1.40;;;1.30;;
4375;SDS011;2202;50.866;12.750;2023-12-20T05:10:25;1.60;;;1.40;;
4375;SDS011;2202;50.866;12.750;2023-12-20T05:12:53;3.03;;;1.60;;
4375;SDS011;2202;50.866;12.750;2023-12-20T05:15:21;1.50;;;1.40;;
4375;SDS011;2202;50.866;12.750;2023-12-20T05:17:48;1.53;;;1.40;;
4375;SDS011;2202;50.866;12.750;2023-12-20T05:20:15;1.70;;;1.60;;
4375;SDS011;2202;50.866;12.750;2023-12-20T05:22:42;1.40;;;1.30;;
4375;SDS011;2202;50.866;12.750;2023-12-20T05:25:10;1.97;;;1.80;;
4375;SDS011;2202;50.866;12.750;2023-12-20T05:27:36;1.67;;;1.57;;
4375;SDS011;2202;50.866;12.750;2023-12-20T05:30:04;1.73;;;1.63;;
4375;SDS011;2202;50.866;12.750;2023-12-20T05:32:32;1.93;;;1.83;;
4375;SDS011;2202;50.866;12.750;2023-12-20T05:34:59;1.50;;;1.40;;
4375;SDS011;2202;50.866;12.750;2023-12-20T05:37:26;1.80;;;1.60;;
4375;SDS011;2202;50.866;12.750;2023-12-20T05:39:54;1.87;;;1.70;;
4375;SDS011;2202;50.866;12.750;2023-12-20T05:42:21;2.00;;;1.90;;
4375;SDS011;2202;50.866;12.750;2023-12-20T05:44:47;1.80;;;1.70;;
4375;SDS011;2202;50.866;12.750;2023-12-20T05:47:14;1.80;;;1.70;;
4375;SDS011;2202;50.866;12.750;2023-12-20T05:49:43;2.67;;;2.00;;
4375;SDS011;2202;50.866;12.750;2023-12-20T05:52:11;2.00;;;1.90;;
4375;SDS011;2202;50.866;12.750;2023-12-20T05:54:38;2.50;;;2.30;;
4375;SDS011;2202;50.866;12.750;2023-12-20T05:57:05;3.30;;;2.40;;
4375;SDS011;2202;50.866;12.750;2023-12-20T05:59:32;2.07;;;1.90;;
4375;SDS011;2202;50.866;12.750;2023-12-20T06:01:58;2.87;;;2.67;;
4375;SDS011;2202;50.866;12.750;2023-12-20T06:04:25;2.73;;;2.40;;
4375;SDS011;2202;50.866;12.750;2023-12-20T06:06:54;2.37;;;2.27;;
4375;SDS011;2202;50.866;12.750;2023-12-20T06:09:20;3.00;;;2.77;;
4375;SDS011;2202;50.866;12.750;2023-12-20T06:11:47;2.97;;;2.67;;
4375;SDS011;2202;50.866;12.750;2023-12-20T06:14:16;2.17;;;2.03;;
4375;SDS011;2202;50.866;12.750;2023-12-20T06:16:43;3.00;;;2.67;;
4375;SDS011;2202;50.866;12.750;2023-12-20T06:19:10;3.70;;;3.50;;
4375;SDS011;2202;50.866;12.750;2023-12-20T06:21:37;3.50;;;3.20;;
4375;SDS011;2202;50.866;12.750;2023-12-20T06:24:05;4.10;;;3.80;;
4375;SDS011;2202;50.866;12.750;2023-12-20T06:26:32;2.90;;;2.70;;
4375;SDS011;2202;50.866;12.750;2023-12-20T06:28:59;3.77;;;3.47;;
4375;SDS011;2202;50.866;12.750;2023-12-20T06:31:26;3.90;;;3.60;;
4375;SDS011;2202;50.866;12.750;2023-12-20T06:33:53;4.77;;;3.80;;
4375;SDS011;2202;50.866;12.750;2023-12-20T06:36:22;4.20;;;3.90;;
4375;SDS011;2202;50.866;12.750;2023-12-20T06:38:49;4.77;;;4.33;;
4375;SDS011;2202;50.866;12.750;2023-12-20T06:41:18;4.77;;;4.30;;
4375;SDS011;2202;50.866;12.750;2023-12-20T06:43:45;3.53;;;3.30;;
4375;SDS011;2202;50.866;12.750;2023-12-20T06:46:12;4.03;;;3.63;;
4375;SDS011;2202;50.866;12.750;2023-12-20T06:48:38;3.90;;;3.60;;
4375;SDS011;2202;50.866;12.750;2023-12-20T06:51:05;3.70;;;3.50;;
4375;SDS011;2202;50.866;12.750;2023-12-20T06:53:32;3.30;;;3.10;;
4375;SDS011;2202;50.866;12.750;2023-12-20T06:55:59;4.00;;;3.70;;
4375;SDS011;2202;50.866;12.750;2023-12-20T06:58:27;4.00;;;3.60;;
4375;SDS011;2202;50.866;12.750;2023-12-20T07:00:54;5.00;;;4.50;;
4375;SDS011;2202;50.866;12.750;2023-12-20T07:03:21;4.93;;;3.33;;
4375;SDS011;2202;50.866;12.750;2023-12-20T07:05:48;4.30;;;3.90;;
4375;SDS011;2202;50.866;12.750;2023-12-20T07:08:15;2.90;;;2.70;;
4375;SDS011;2202;50.866;12.750;2023-12-20T07:10:42;4.63;;;3.67;;
4375;SDS011;2202;50.866;12.750;2023-12-20T07:13:09;9.70;;;3.67;;
4375;SDS011;2202;50.866;12.750;2023-12-20T07:15:37;3.97;;;3.30;;
4375;SDS011;2202;50.866;12.750;2023-12-20T07:18:04;3.80;;;3.43;;
4375;SDS011;2202;50.866;12.750;2023-12-20T07:20:31;4.40;;;3.30;;
4375;SDS011;2202;50.866;12.750;2023-12-20T07:22:58;3.67;;;3.30;;
4375;SDS011;2202;50.866;12.750;2023-12-20T07:25:26;2.97;;;2.77;;
4375;SDS011;2202;50.866;12.750;2023-12-20T07:27:53;3.17;;;2.87;;
4375;SDS011;2202;50.866;12.750;2023-12-20T07:30:19;3.90;;;3.60;;
4375;SDS011;2202;50.866;12.750;2023-12-20T07:32:48;8.90;;;5.37;;
4375;SDS011;2202;50.866;12.750;2023-12-20T07:35:15;4.40;;;3.40;;
4375;SDS011;2202;50.866;12.750;2023-12-20T07:37:42;3.70;;;3.30;;
4375;SDS011;2202;50.866;12.750;2023-12-20T07:40:09;3.40;;;3.10;;
4375;SDS011;2202;50.866;12.750;2023-12-20T07:42:36;3.60;;;2.40;;
4375;SDS011;2202;50.866;12.750;2023-12-20T07:45:03;3.00;;;2.80;;
4375;SDS011;2202;50.866;12.750;2023-12-20T07:47:31;3.10;;;2.40;;
4375;SDS011;2202;50.866;12.750;2023-12-20T07:49:59;4.17;;;3.70;;
4375;SDS011;2202;50.866;12.750;2023-12-20T07:52:27;2.70;;;2.50;;
4375;SDS011;2202;50.866;12.750;2023-12-20T07:54:53;4.67;;;3.33;;
4375;SDS011;2202;50.866;12.750;2023-12-20T07:57:21;6.93;;;3.53;;
4375;SDS011;2202;50.866;12.750;2023-12-20T07:59:47;3.83;;;3.37;;
4375;SDS011;2202;50.866;12.750;2023-12-20T08:02:14;4.30;;;3.90;;
4375;SDS011;2202;50.866;12.750;2023-12-20T08:04:41;5.10;;;4.70;;
4375;SDS011;2202;50.866;12.750;2023-12-20T08:07:09;4.47;;;3.77;;
4375;SDS011;2202;50.866;12.750;2023-12-20T08:09:36;4.30;;;4.00;;
4375;SDS011;2202;50.866;12.750;2023-12-20T08:12:03;4.50;;;4.10;;
4375;SDS011;2202;50.866;12.750;2023-12-20T08:14:30;4.97;;;4.50;;
4375;SDS011;2202;50.866;12.750;2023-12-20T08:16:57;4.10;;;3.50;;
4375;SDS011;2202;50.866;12.750;2023-12-20T08:19:24;4.57;;;3.83;;
4375;SDS011;2202;50.866;12.750;2023-12-20T08:21:51;5.00;;;4.60;;
4375;SDS011;2202;50.866;12.750;2023-12-20T08:24:19;6.17;;;3.53;;
4375;SDS011;2202;50.866;12.750;2023-12-20T08:26:46;4.63;;;4.23;;
4375;SDS011;2202;50.866;12.750;2023-12-20T08:29:13;3.00;;;2.67;;
4375;SDS011;2202;50.866;12.750;2023-12-20T08:31:40;5.37;;;4.03;;
4375;SDS011;2202;50.866;12.750;2023-12-20T08:34:07;6.63;;;3.87;;
4375;SDS011;2202;50.866;12.750;2023-12-20T08:36:34;6.43;;;4.30;;
4375;SDS011;2202;50.866;12.750;2023-12-20T08:39:01;4.97;;;4.20;;
4375;SDS011;2202;50.866;12.750;2023-12-20T08:41:32;5.27;;;4.13;;
4375;SDS011;2202;50.866;12.750;2023-12-20T08:43:59;9.50;;;4.67;;
4375;SDS011;2202;50.866;12.750;2023-12-20T08:46:26;5.40;;;4.90;;
4375;SDS011;2202;50.866;12.750;2023-12-20T08:48:53;5.90;;;3.50;;
4375;SDS011;2202;50.866;12.750;2023-12-20T08:51:20;3.33;;;3.03;;
4375;SDS011;2202;50.866;12.750;2023-12-20T08:53:48;7.87;;;3.33;;
4375;SDS011;2202;50.866;12.750;2023-12-20T08:56:14;7.57;;;5.40;;
4375;SDS011;2202;50.866;12.750;2023-12-20T08:58:44;3.50;;;3.10;;
4375;SDS011;2202;50.866;12.750;2023-12-20T09:01:11;3.30;;;3.03;;
4375;SDS011;2202;50.866;12.750;2023-12-20T09:03:38;4.70;;;2.90;;
4375;SDS011;2202;50.866;12.750;2023-12-20T09:06:06;2.97;;;2.67;;
4375;SDS011;2202;50.866;12.750;2023-12-20T09:08:33;3.43;;;2.30;;
4375;SDS011;2202;50.866;12.750;2023-12-20T09:11:00;2.53;;;2.33;;
4375;SDS011;2202;50.866;12.750;2023-12-20T09:13:26;3.40;;;2.37;;
4375;SDS011;2202;50.866;12.750;2023-12-20T09:15:55;3.37;;;3.07;;
4375;SDS011;2202;50.866;12.750;2023-12-20T09:18:22;3.27;;;3.00;;
4375;SDS011;2202;50.866;12.750;2023-12-20T09:20:49;5.00;;;3.70;;
4375;SDS011;2202;50.866;12.750;2023-12-20T09:23:16;7.00;;;4.30;;
4375;SDS011;2202;50.866;12.750;2023-12-20T09:25:43;11.73;;;4.00;;
4375;SDS011;2202;50.866;12.750;2023-12-20T09:28:10;4.07;;;3.67;;
4375;SDS011;2202;50.866;12.750;2023-12-20T09:30:37;3.20;;;2.70;;
4375;SDS011;2202;50.866;12.750;2023-12-20T09:33:06;5.60;;;3.20;;
4375;SDS011;2202;50.866;12.750;2023-12-20T09:35:33;3.47;;;3.17;;
4375;SDS011;2202;50.866;12.750;2023-12-20T09:38:00;4.77;;;3.80;;
4375;SDS011;2202;50.866;12.750;2023-12-20T09:40:27;6.60;;;3.97;;
4375;SDS011;2202;50.866;12.750;2023-12-20T09:42:56;4.43;;;4.03;;
4375;SDS011;2202;50.866;12.750;2023-12-20T09:45:24;5.40;;;4.23;;
4375;SDS011;2202;50.866;12.750;2023-12-20T09:47:51;4.90;;;3.80;;
4375;SDS011;2202;50.866;12.750;2023-12-20T09:50:21;4.43;;;3.77;;
4375;SDS011;2202;50.866;12.750;2023-12-20T09:52:49;5.73;;;4.23;;
4375;SDS011;2202;50.866;12.750;2023-12-20T09:55:17;5.63;;;4.77;;
4375;SDS011;2202;50.866;12.750;2023-12-20T09:57:45;6.97;;;5.70;;
4375;SDS011;2202;50.866;12.750;2023-12-20T10:00:12;5.00;;;4.50;;
4375;SDS011;2202;50.866;12.750;2023-12-20T10:02:41;6.80;;;5.03;;
4375;SDS011;2202;50.866;12.750;2023-12-20T10:05:15;5.80;;;5.00;;
4375;SDS011;2202;50.866;12.750;2023-12-20T10:07:46;5.10;;;4.60;;
4375;SDS011;2202;50.866;12.750;2023-12-20T10:10:13;6.10;;;4.83;;
4375;SDS011;2202;50.866;12.750;2023-12-20T10:12:40;6.00;;;4.60;;
4375;SDS011;2202;50.866;12.750;2023-12-20T10:15:26;5.27;;;4.77;;
4375;SDS011;2202;50.866;12.750;2023-12-20T10:17:53;5.90;;;4.73;;
4375;SDS011;2202;50.866;12.750;2023-12-20T10:20:20;5.87;;;3.87;;
4375;SDS011;2202;50.866;12.750;2023-12-20T10:22:49;7.20;;;6.50;;
4375;SDS011;2202;50.866;12.750;2023-12-20T10:25:18;4.90;;;4.10;;
4375;SDS011;2202;50.866;12.750;2023-12-20T10:27:46;5.83;;;4.27;;
4375;SDS011;2202;50.866;12.750;2023-12-20T10:30:13;3.70;;;3.40;;
4375;SDS011;2202;50.866;12.750;2023-12-20T10:32:40;4.50;;;3.73;;
4375;SDS011;2202;50.866;12.750;2023-12-20T10:35:08;4.83;;;4.00;;
4375;SDS011;2202;50.866;12.750;2023-12-20T10:37:35;4.40;;;4.00;;
4375;SDS011;2202;50.866;12.750;2023-12-20T10:40:04;4.33;;;3.90;;
4375;SDS011;2202;50.866;12.750;2023-12-20T10:42:33;6.20;;;3.67;;
4375;SDS011;2202;50.866;12.750;2023-12-20T10:45:02;4.00;;;3.70;;
4375;SDS011;2202;50.866;12.750;2023-12-20T10:47:30;3.87;;;3.47;;
4375;SDS011;2202;50.866;12.750;2023-12-20T10:49:58;4.73;;;3.57;;
4375;SDS011;2202;50.866;12.750;2023-12-20T10:52:27;4.93;;;3.67;;
4375;SDS011;2202;50.866;12.750;2023-12-20T10:54:55;4.20;;;3.70;;
4375;SDS011;2202;50.866;12.750;2023-12-20T10:57:23;6.60;;;5.30;;
4375;SDS011;2202;50.866;12.750;2023-12-20T10:59:54;3.97;;;3.67;;
4375;SDS011;2202;50.866;12.750;2023-12-20T11:02:22;5.70;;;4.70;;
4375;SDS011;2202;50.866;12.750;2023-12-20T11:04:50;5.27;;;3.97;;
4375;SDS011;2202;50.866;12.750;2023-12-20T11:07:23;5.60;;;4.03;;
4375;SDS011;2202;50.866;12.750;2023-12-20T11:09:56;11.33;;;6.20;;
4375;SDS011;2202;50.866;12.750;2023-12-20T11:12:33;6.30;;;4.07;;
4375;SDS011;2202;50.866;12.750;2023-12-20T11:15:05;6.90;;;4.43;;
4375;SDS011;2202;50.866;12.750;2023-12-20T11:17:33;8.33;;;4.17;;
4375;SDS011;2202;50.866;12.750;2023-12-20T11:20:04;4.80;;;4.27;;
4375;SDS011;2202;50.866;12.750;2023-12-20T11:22:32;4.70;;;4.17;;
4375;SDS011;2202;50.866;12.750;2023-12-20T11:25:02;6.23;;;5.63;;
4375;SDS011;2202;50.866;12.750;2023-12-20T11:27:33;5.50;;;3.53;;
4375;SDS011;2202;50.866;12.750;2023-12-20T11:30:00;4.03;;;3.63;;
4375;SDS011;2202;50.866;12.750;2023-12-20T11:32:31;5.93;;;3.47;;
4375;SDS011;2202;50.866;12.750;2023-12-20T11:35:00;7.40;;;3.60;;
4375;SDS011;2202;50.866;12.750;2023-12-20T11:37:42;5.20;;;2.80;;
4375;SDS011;2202;50.866;12.750;2023-12-20T11:40:11;3.57;;;3.20;;
4375;SDS011;2202;50.866;12.750;2023-12-20T11:42:41;4.50;;;3.70;;
4375;SDS011;2202;50.866;12.750;2023-12-20T11:45:09;5.10;;;3.80;;
4375;SDS011;2202;50.866;12.750;2023-12-20T11:47:39;6.03;;;4.57;;
4375;SDS011;2202;50.866;12.750;2023-12-20T11:50:07;4.57;;;3.83;;
4375;SDS011;2202;50.866;12.750;2023-12-20T11:52:34;4.20;;;3.23;;
4375;SDS011;2202;50.866;12.750;2023-12-20T11:55:01;6.60;;;3.00;;
4375;SDS011;2202;50.866;12.750;2023-12-20T11:57:28;4.63;;;3.40;;
4375;SDS011;2202;50.866;12.750;2023-12-20T11:59:57;7.93;;;4.10;;
4375;SDS011;2202;50.866;12.750;2023-12-20T12:02:24;3.27;;;2.97;;
4375;SDS011;2202;50.866;12.750;2023-12-20T12:04:51;4.30;;;3.30;;
4375;SDS011;2202;50.866;12.750;2023-12-20T12:07:18;4.97;;;3.23;;
4375;SDS011;2202;50.866;12.750;2023-12-20T12:09:45;9.17;;;3.50;;
4375;SDS011;2202;50.866;12.750;2023-12-20T12:12:12;7.83;;;3.73;;
4375;SDS011;2202;50.866;12.750;2023-12-20T12:14:39;13.13;;;4.40;;
4375;SDS011;2202;50.866;12.750;2023-12-20T12:17:11;4.30;;;2.87;;
4375;SDS011;2202;50.866;12.750;2023-12-20T12:19:38;5.77;;;3.33;;
4375;SDS011;2202;50.866;12.750;2023-12-20T12:22:06;5.20;;;4.37;;
4375;SDS011;2202;50.866;12.750;2023-12-20T12:24:35;3.30;;;2.90;;
4375;SDS011;2202;50.866;12.750;2023-12-20T12:27:02;3.60;;;3.30;;
4375;SDS011;2202;50.866;12.750;2023-12-20T12:29:31;4.03;;;2.47;;
4375;SDS011;2202;50.866;12.750;2023-12-20T12:31:58;3.23;;;2.93;;
4375;SDS011;2202;50.866;12.750;2023-12-20T12:34:28;5.23;;;3.33;;
4375;SDS011;2202;50.866;12.750;2023-12-20T12:36:55;4.40;;;2.30;;
4375;SDS011;2202;50.866;12.750;2023-12-20T12:39:22;2.97;;;2.23;;
4375;SDS011;2202;50.866;12.750;2023-12-20T12:41:51;3.40;;;2.90;;
4375;SDS011;2202;50.866;12.750;2023-12-20T12:44:17;5.10;;;3.17;;
4375;SDS011;2202;50.866;12.750;2023-12-20T12:46:45;4.50;;;3.00;;
4375;SDS011;2202;50.866;12.750;2023-12-20T12:49:14;5.10;;;2.60;;
4375;SDS011;2202;50.866;12.750;2023-12-20T12:51:43;3.83;;;2.30;;
4375;SDS011;2202;50.866;12.750;2023-12-20T12:54:10;4.83;;;2.83;;
4375;SDS011;2202;50.866;12.750;2023-12-20T12:56:38;3.73;;;2.80;;
4375;SDS011;2202;50.866;12.750;2023-12-20T12:59:05;4.33;;;2.87;;
4375;SDS011;2202;50.866;12.750;2023-12-20T13:01:32;4.77;;;2.30;;
4375;SDS011;2202;50.866;12.750;2023-12-20T13:03:59;4.07;;;2.60;;
4375;SDS011;2202;50.866;12.750;2023-12-20T13:06:28;2.30;;;2.10;;
4375;SDS011;2202;50.866;12.750;2023-12-20T13:08:56;1.93;;;1.83;;
4375;SDS011;2202;50.866;12.750;2023-12-20T13:11:23;3.80;;;3.00;;
4375;SDS011;2202;50.866;12.750;2023-12-20T13:13:50;3.43;;;3.23;;
4375;SDS011;2202;50.866;12.750;2023-12-20T13:16:17;5.50;;;3.90;;
4375;SDS011;2202;50.866;12.750;2023-12-20T13:18:44;5.90;;;4.37;;
4375;SDS011;2202;50.866;12.750;2023-12-20T13:21:12;8.03;;;3.50;;
4375;SDS011;2202;50.866;12.750;2023-12-20T13:23:39;3.73;;;3.30;;
4375;SDS011;2202;50.866;12.750;2023-12-20T13:26:08;6.73;;;3.80;;
4375;SDS011;2202;50.866;12.750;2023-12-20T13:28:35;6.27;;;3.60;;
4375;SDS011;2202;50.866;12.750;2023-12-20T13:31:02;2.93;;;2.63;;
4375;SDS011;2202;50.866;12.750;2023-12-20T13:33:29;3.07;;;2.87;;
4375;SDS011;2202;50.866;12.750;2023-12-20T13:35:56;3.53;;;2.67;;
4375;SDS011;2202;50.866;12.750;2023-12-20T13:38:23;2.77;;;2.57;;
4375;SDS011;2202;50.866;12.750;2023-12-20T13:40:50;3.10;;;2.17;;
4375;SDS011;2202;50.866;12.750;2023-12-20T13:43:18;6.50;;;3.00;;
4375;SDS011;2202;50.866;12.750;2023-12-20T13:45:46;2.13;;;1.93;;
4375;SDS011;2202;50.866;12.750;2023-12-20T13:48:14;3.20;;;2.90;;
4375;SDS011;2202;50.866;12.750;2023-12-20T13:50:40;4.90;;;2.30;;
4375;SDS011;2202;50.866;12.750;2023-12-20T13:53:07;3.03;;;2.70;;
4375;SDS011;2202;50.866;12.750;2023-12-20T13:55:34;3.00;;;2.50;;
4375;SDS011;2202;50.866;12.750;2023-12-20T13:58:01;4.17;;;2.80;;
4375;SDS011;2202;50.866;12.750;2023-12-20T14:00:29;3.87;;;3.27;;
4375;SDS011;2202;50.866;12.750;2023-12-20T14:02:56;4.03;;;2.73;;
4375;SDS011;2202;50.866;12.750;2023-12-20T14:05:23;3.87;;;2.30;;
4375;SDS011;2202;50.866;12.750;2023-12-20T14:07:51;3.33;;;3.03;;
4375;SDS011;2202;50.866;12.750;2023-12-20T14:10:18;3.83;;;2.90;;
4375;SDS011;2202;50.866;12.750;2023-12-20T14:12:45;3.27;;;2.40;;
4375;SDS011;2202;50.866;12.750;2023-12-20T14:15:12;7.20;;;3.03;;
4375;SDS011;2202;50.866;12.750;2023-12-20T14:17:41;3.23;;;3.03;;
4375;SDS011;2202;50.866;12.750;2023-12-20T14:20:08;3.53;;;2.53;;
4375;SDS011;2202;50.866;12.750;2023-12-20T14:22:37;3.90;;;2.60;;
4375;SDS011;2202;50.866;12.750;2023-12-20T14:25:10;2.33;;;2.13;;
4375;SDS011;2202;50.866;12.750;2023-12-20T14:27:37;2.60;;;2.40;;
4375;SDS011;2202;50.866;12.750;2023-12-20T14:30:06;3.07;;;2.77;;
4375;SDS011;2202;50.866;12.750;2023-12-20T14:32:34;2.53;;;2.07;;
4375;SDS011;2202;50.866;12.750;2023-12-20T14:35:05;3.83;;;3.60;;
4375;SDS011;2202;50.866;12.750;2023-12-20T14:37:33;5.50;;;3.63;;
4375;SDS011;2202;50.866;12.750;2023-12-20T14:40:00;3.30;;;2.70;;
4375;SDS011;2202;50.866;12.750;2023-12-20T14:42:27;3.70;;;2.63;;
4375;SDS011;2202;50.866;12.750;2023-12-20T14:44:54;5.40;;;2.93;;
4375;SDS011;2202;50.866;12.750;2023-12-20T14:47:21;3.60;;;2.87;;
4375;SDS011;2202;50.866;12.750;2023-12-20T14:49:50;4.87;;;2.80;;
4375;SDS011;2202;50.866;12.750;2023-12-20T14:52:18;3.70;;;3.10;;
4375;SDS011;2202;50.866;12.750;2023-12-20T14:54:45;3.30;;;3.00;;
4375;SDS011;2202;50.866;12.750;2023-12-20T14:57:12;4.30;;;3.20;;
4375;SDS011;2202;50.866;12.750;2023-12-20T14:59:39;6.37;;;3.23;;
4375;SDS011;2202;50.866;12.750;2023-12-20T15:02:06;4.07;;;3.23;;